Terminal Aerodrome Forecast
Issued by NWS

Home | Current Version | Previous Version | Text Only | Print | Product List | Glossary On
Versions: 1 2 3 4 5 6 7 8 9 10 11 12 13 14 15 16 17 18 19 20 21 22 23 24 25 26 27 28 29 30
000
FTUS42 KFFC 211138
TAFFTY
TAF
KFTY 211138Z 2112/2212 04005KT 6SM BR OVC009
      TEMPO 2112/2115 OVC004
     FM211600 07005KT 4SM BR OVC007
     FM211800 08007KT P6SM OVC012
     FM220400 09005KT 6SM BR OVC007
     FM220900 07008KT 4SM BR OVC004=

USA.gov is the U.S. government's official web portal to all federal, state and local government web resources and services.